Time,TemperatureF,DewpointF,PressureIn,WindDirection,WindDirectionDegrees,WindSpeedMPH,WindSpeedGustMPH,Humidity,HourlyPrecipIn,Conditions,Clouds,dailyrainin,SoftwareType,DateUTC
2013-05-24 00:09:00,50.3,48.0,30.26,ENE,77,0.0,0.0,91,0.00,,,0.01,weatherlink.com 1.10,2013-05-24 05:09:00,
2013-05-24 00:24:00,49.9,47.0,30.26,ENE,77,0.0,1.0,91,0.00,,,0.01,weatherlink.com 1.10,2013-05-24 05:24:00,
2013-05-24 00:39:00,49.6,47.0,30.27,ENE,77,0.0,1.0,92,0.00,,,0.01,weatherlink.com 1.10,2013-05-24 05:39:00,
2013-05-24 00:55:00,49.3,47.0,30.28,ENE,77,0.0,1.0,92,0.00,,,0.01,weatherlink.com 1.10,2013-05-24 05:55:00,
2013-05-24 01:10:00,49.0,47.0,30.28,ENE,77,0.0,1.0,92,0.00,,,0.01,weatherlink.com 1.10,2013-05-24 06:10:00,
2013-05-24 01:25:00,48.8,46.0,30.28,ENE,77,0.0,1.0,91,0.00,,,0.01,weatherlink.com 1.10,2013-05-24 06:25:00,
2013-05-24 01:40:00,48.3,46.0,30.29,ENE,77,0.0,0.0,92,0.00,,,0.00,weatherlink.com 1.10,2013-05-24 06:40:00,
2013-05-24 01:55:00,47.8,46.0,30.29,ENE,77,0.0,0.0,92,0.00,,,0.00,weatherlink.com 1.10,2013-05-24 06:55:00,
2013-05-24 02:10:00,46.9,45.0,30.30,ENE,77,0.0,0.0,92,0.00,,,0.00,weatherlink.com 1.10,2013-05-24 07:10:00,
2013-05-24 02:25:00,46.4,45.0,30.30,ENE,77,0.0,2.0,93,0.00,,,0.00,weatherlink.com 1.10,2013-05-24 07:25:00,
2013-05-24 02:40:00,46.4,45.0,30.30,ENE,77,0.0,2.0,94,0.00,,,0.00,weatherlink.com 1.10,2013-05-24 07:40:00,
2013-05-24 02:55:00,46.3,44.0,30.30,ENE,77,0.0,2.0,93,0.00,,,0.00,weatherlink.com 1.10,2013-05-24 07:55:00,
2013-05-24 03:10:00,45.8,44.0,30.31,ENE,77,1.0,2.0,94,0.00,,,0.00,weatherlink.com 1.10,2013-05-24 08:10:00,
2013-05-24 03:25:00,45.5,44.0,30.31,ENE,62,0.0,5.0,93,0.00,,,0.00,weatherlink.com 1.10,2013-05-24 08:25:00,
2013-05-24 03:40:00,45.2,43.0,30.32,ENE,62,0.0,4.0,92,0.00,,,0.00,weatherlink.com 1.10,2013-05-24 08:40:00,
2013-05-24 03:55:00,44.8,43.0,30.33,ENE,62,0.0,2.0,92,0.00,,,0.00,weatherlink.com 1.10,2013-05-24 08:55:00,
2013-05-24 04:10:00,44.2,42.0,30.34,NE,40,2.0,7.0,90,0.00,,,0.00,weatherlink.com 1.10,2013-05-24 09:10:00,
2013-05-24 04:25:00,43.8,40.0,30.34,NE,46,3.0,5.0,87,0.00,,,0.00,weatherlink.com 1.10,2013-05-24 09:25:00,
2013-05-24 04:40:00,43.1,39.0,30.34,NE,42,3.0,4.0,86,0.00,,,0.00,weatherlink.com 1.10,2013-05-24 09:40:00,
2013-05-24 04:55:00,42.6,39.0,30.35,NE,42,0.0,3.0,86,0.00,,,0.00,weatherlink.com 1.10,2013-05-24 09:55:00,
2013-05-24 05:10:00,42.2,38.0,30.36,NE,42,0.0,1.0,86,0.00,,,0.00,weatherlink.com 1.10,2013-05-24 10:10:00,
2013-05-24 05:25:00,41.6,38.0,30.37,NE,42,0.0,0.0,88,0.00,,,0.00,weatherlink.com 1.10,2013-05-24 10:25:00,
2013-05-24 05:40:00,41.3,38.0,30.37,NE,42,0.0,1.0,89,0.00,,,0.00,weatherlink.com 1.10,2013-05-24 10:40:00,
2013-05-24 05:55:00,41.5,38.0,30.38,NE,42,1.0,2.0,88,0.00,,,0.00,weatherlink.com 1.10,2013-05-24 10:55:00,
2013-05-24 06:10:00,41.6,38.0,30.38,NNE,15,1.0,5.0,86,0.00,,,0.00,weatherlink.com 1.10,2013-05-24 11:10:00,
2013-05-24 06:25:00,42.0,38.0,30.39,NNE,27,1.0,6.0,85,0.00,,,0.00,weatherlink.com 1.10,2013-05-24 11:25:00,
2013-05-24 06:40:00,42.7,38.0,30.40,NNE,14,1.0,4.0,84,0.00,,,0.00,weatherlink.com 1.10,2013-05-24 11:40:00,
2013-05-24 06:55:00,43.3,39.0,30.40,NE,39,2.0,8.0,83,0.00,,,0.00,weatherlink.com 1.10,2013-05-24 11:55:00,
2013-05-24 07:11:00,43.8,38.0,30.41,ENE,61,2.0,7.0,81,0.00,,,0.00,weatherlink.com 1.10,2013-05-24 12:11:00,
2013-05-24 07:26:00,44.3,38.0,30.41,NNE,21,5.0,8.0,79,0.00,,,0.00,weatherlink.com 1.10,2013-05-24 12:26:00,
2013-05-24 07:41:00,44.9,37.0,30.42,ENE,59,3.0,9.0,75,0.00,,,0.00,weatherlink.com 1.10,2013-05-24 12:41:00,
2013-05-24 07:56:00,45.6,38.0,30.42,NE,46,6.0,10.0,75,0.00,,,0.00,weatherlink.com 1.10,2013-05-24 12:56:00,
2013-05-24 08:11:00,46.3,38.0,30.43,East,87,6.0,12.0,73,0.00,,,0.00,weatherlink.com 1.10,2013-05-24 13:11:00,
2013-05-24 08:26:00,47.0,39.0,30.43,ENE,73,7.0,9.0,73,0.00,,,0.00,weatherlink.com 1.10,2013-05-24 13:26:00,
2013-05-24 08:41:00,48.0,39.0,30.43,ENE,67,4.0,9.0,70,0.00,,,0.00,weatherlink.com 1.10,2013-05-24 13:41:00,
2013-05-24 08:56:00,49.1,39.0,30.44,NNE,21,4.0,6.0,69,0.00,,,0.00,weatherlink.com 1.10,2013-05-24 13:56:00,
2013-05-24 09:11:00,49.6,39.0,30.44,ESE,103,4.0,8.0,66,0.00,,,0.00,weatherlink.com 1.10,2013-05-24 14:11:00,
2013-05-24 09:26:00,50.5,38.0,30.44,East,82,0.0,6.0,62,0.00,,,0.00,weatherlink.com 1.10,2013-05-24 14:26:00,
2013-05-24 09:41:00,50.8,38.0,30.44,North,360,5.0,8.0,63,0.00,,,0.00,weatherlink.com 1.10,2013-05-24 14:41:00,
2013-05-24 09:56:00,52.3,39.0,30.43,ENE,72,0.0,9.0,60,0.00,,,0.00,weatherlink.com 1.10,2013-05-24 14:56:00,
2013-05-24 10:11:00,53.2,39.0,30.43,North,9,3.0,8.0,59,0.00,,,0.00,weatherlink.com 1.10,2013-05-24 15:11:00,
2013-05-24 10:26:00,53.9,40.0,30.42,North,5,6.0,11.0,59,0.00,,,0.00,weatherlink.com 1.10,2013-05-24 15:26:00,
2013-05-24 10:41:00,55.9,40.0,30.41,ENE,76,3.0,9.0,56,0.00,,,0.00,weatherlink.com 1.10,2013-05-24 15:41:00,
2013-05-24 10:56:00,56.8,40.0,30.41,NE,46,2.0,13.0,53,0.00,,,0.00,weatherlink.com 1.10,2013-05-24 15:56:00,
2013-05-24 11:11:00,57.5,40.0,30.41,NNW,338,4.0,11.0,53,0.00,,,0.00,weatherlink.com 1.10,2013-05-24 16:11:00,
2013-05-24 11:26:00,59.2,41.0,30.41,NNE,33,4.0,9.0,51,0.00,,,0.00,weatherlink.com 1.10,2013-05-24 16:26:00,
2013-05-24 11:41:00,59.9,40.0,30.42,NE,55,8.0,8.0,49,0.00,,,0.00,weatherlink.com 1.10,2013-05-24 16:41:00,
2013-05-24 11:56:00,60.6,40.0,30.41,NNE,12,8.0,10.0,46,0.00,,,0.00,weatherlink.com 1.10,2013-05-24 16:56:00,
2013-05-24 12:11:00,61.1,41.0,30.40,North,5,5.0,11.0,47,0.00,,,0.00,weatherlink.com 1.10,2013-05-24 17:11:00,
2013-05-24 12:26:00,62.2,42.0,30.40,NNW,333,9.0,14.0,48,0.00,,,0.00,weatherlink.com 1.10,2013-05-24 17:26:00,
2013-05-24 12:41:00,62.6,42.0,30.40,North,355,5.0,10.0,47,0.00,,,0.00,weatherlink.com 1.10,2013-05-24 17:41:00,
2013-05-24 12:56:00,63.3,41.0,30.39,NNE,29,4.0,10.0,44,0.00,,,0.00,weatherlink.com 1.10,2013-05-24 17:56:00,
2013-05-24 13:11:00,65.4,41.0,30.39,NNW,346,4.0,11.0,41,0.00,,,0.00,weatherlink.com 1.10,2013-05-24 18:11:00,
2013-05-24 13:26:00,66.8,41.0,30.38,NE,43,3.0,11.0,39,0.00,,,0.00,weatherlink.com 1.10,2013-05-24 18:26:00,
2013-05-24 13:42:00,68.0,39.0,30.37,NNE,21,5.0,12.0,35,0.00,,,0.00,weatherlink.com 1.10,2013-05-24 18:42:00,
2013-05-24 13:57:00,68.6,39.0,30.37,NNE,26,0.0,9.0,34,0.00,,,0.00,weatherlink.com 1.10,2013-05-24 18:57:00,
2013-05-24 14:12:00,69.9,39.0,30.36,East,96,0.0,9.0,32,0.00,,,0.00,weatherlink.com 1.10,2013-05-24 19:12:00,
2013-05-24 14:27:00,71.6,41.0,30.36,ENE,73,4.0,9.0,33,0.00,,,0.00,weatherlink.com 1.10,2013-05-24 19:27:00,
2013-05-24 14:42:00,71.3,42.0,30.34,North,5,4.0,9.0,35,0.00,,,0.00,weatherlink.com 1.10,2013-05-24 19:42:00,
2013-05-24 14:57:00,71.9,40.0,30.34,SE,138,2.0,13.0,32,0.00,,,0.00,weatherlink.com 1.10,2013-05-24 19:57:00,
2013-05-24 15:12:00,71.0,40.0,30.34,SSE,148,1.0,9.0,33,0.00,,,0.00,weatherlink.com 1.10,2013-05-24 20:12:00,
2013-05-24 15:27:00,74.1,41.0,30.34,SE,130,1.0,6.0,30,0.00,,,0.00,weatherlink.com 1.10,2013-05-24 20:27:00,
2013-05-24 15:42:00,74.8,40.0,30.34,East,79,5.0,9.0,28,0.00,,,0.00,weatherlink.com 1.10,2013-05-24 20:42:00,
2013-05-24 15:57:00,72.5,37.0,30.33,East,94,2.0,10.0,27,0.00,,,0.00,weatherlink.com 1.10,2013-05-24 20:57:00,
2013-05-24 16:12:00,70.3,39.0,30.33,NE,41,2.0,10.0,32,0.00,,,0.00,weatherlink.com 1.10,2013-05-24 21:12:00,
2013-05-24 16:27:00,71.9,42.0,30.32,East,86,3.0,6.0,34,0.00,,,0.00,weatherlink.com 1.10,2013-05-24 21:27:00,
2013-05-24 16:42:00,74.9,42.0,30.31,East,99,2.0,6.0,31,0.00,,,0.00,weatherlink.com 1.10,2013-05-24 21:42:00,
2013-05-24 16:57:00,74.0,40.0,30.31,South,185,2.0,7.0,29,0.00,,,0.00,weatherlink.com 1.10,2013-05-24 21:57:00,
2013-05-24 17:12:00,74.3,40.0,30.31,SSE,157,3.0,10.0,29,0.00,,,0.00,weatherlink.com 1.10,2013-05-24 22:12:00,
2013-05-24 17:27:00,72.1,39.0,30.30,East,90,5.0,9.0,30,0.00,,,0.00,weatherlink.com 1.10,2013-05-24 22:27:00,
2013-05-24 17:42:00,73.2,37.0,30.30,SE,140,6.0,8.0,27,0.00,,,0.00,weatherlink.com 1.10,2013-05-24 22:42:00,
2013-05-24 17:57:00,72.6,40.0,30.29,SE,133,8.0,10.0,31,0.00,,,0.00,weatherlink.com 1.10,2013-05-24 22:57:00,
2013-05-24 18:12:00,72.6,40.0,30.28,SE,137,3.0,9.0,31,0.00,,,0.00,weatherlink.com 1.10,2013-05-24 23:12:00,
2013-05-24 18:27:00,69.3,41.0,30.28,SE,130,3.0,8.0,36,0.00,,,0.00,weatherlink.com 1.10,2013-05-24 23:27:00,
2013-05-24 18:42:00,73.5,43.0,30.28,SE,142,1.0,8.0,34,0.00,,,0.00,weatherlink.com 1.10,2013-05-24 23:42:00,
2013-05-24 18:57:00,70.9,41.0,30.27,SSE,150,4.0,8.0,34,0.00,,,0.00,weatherlink.com 1.10,2013-05-24 23:57:00,
2013-05-24 19:12:00,68.9,39.0,30.27,SSE,152,4.0,9.0,34,0.00,,,0.00,weatherlink.com 1.10,2013-05-25 00:12:00,
2013-05-24 19:27:00,69.2,40.0,30.27,SE,140,1.0,8.0,34,0.00,,,0.00,weatherlink.com 1.10,2013-05-25 00:27:00,
2013-05-24 19:42:00,68.2,40.0,30.27,SE,132,0.0,4.0,36,0.00,,,0.00,weatherlink.com 1.10,2013-05-25 00:42:00,
2013-05-24 19:57:00,66.5,41.0,30.28,SE,132,0.0,3.0,39,0.00,,,0.00,weatherlink.com 1.10,2013-05-25 00:57:00,
2013-05-24 20:12:00,64.8,42.0,30.28,SE,132,0.0,1.0,44,0.00,,,0.00,weatherlink.com 1.10,2013-05-25 01:12:00,
2013-05-24 20:27:00,63.1,43.0,30.29,SE,132,0.0,1.0,48,0.00,,,0.00,weatherlink.com 1.10,2013-05-25 01:27:00,
2013-05-24 20:42:00,62.1,43.0,30.29,SE,132,0.0,0.0,49,0.00,,,0.00,weatherlink.com 1.10,2013-05-25 01:42:00,
2013-05-24 20:57:00,60.6,44.0,30.28,SE,132,1.0,1.0,54,0.00,,,0.00,weatherlink.com 1.10,2013-05-25 01:57:00,
2013-05-24 21:12:00,59.5,42.0,30.29,SE,132,0.0,1.0,53,0.00,,,0.00,weatherlink.com 1.10,2013-05-25 02:12:00,
2013-05-24 21:27:00,58.6,43.0,30.29,SE,132,0.0,1.0,57,0.00,,,0.00,weatherlink.com 1.10,2013-05-25 02:27:00,
2013-05-24 21:42:00,57.6,44.0,30.30,SE,132,0.0,1.0,60,0.00,,,0.00,weatherlink.com 1.10,2013-05-25 02:42:00,
2013-05-24 21:57:00,56.5,44.0,30.30,SE,132,0.0,2.0,63,0.00,,,0.00,weatherlink.com 1.10,2013-05-25 02:57:00,
2013-05-24 22:12:00,55.6,44.0,30.32,SE,132,0.0,2.0,65,0.00,,,0.00,weatherlink.com 1.10,2013-05-25 03:12:00,
2013-05-24 22:27:00,55.1,43.0,30.33,SE,132,0.0,2.0,65,0.00,,,0.00,weatherlink.com 1.10,2013-05-25 03:27:00,
2013-05-24 22:42:00,55.0,44.0,30.33,SE,132,0.0,3.0,67,0.00,,,0.00,weatherlink.com 1.10,2013-05-25 03:42:00,
2013-05-24 22:57:00,55.3,44.0,30.33,SE,132,0.0,3.0,67,0.00,,,0.00,weatherlink.com 1.10,2013-05-25 03:57:00,
2013-05-24 23:12:00,55.3,44.0,30.33,SE,132,0.0,2.0,66,0.00,,,0.00,weatherlink.com 1.10,2013-05-25 04:12:00,
2013-05-24 23:27:00,55.5,45.0,30.32,SE,132,0.0,1.0,67,0.00,,,0.00,weatherlink.com 1.10,2013-05-25 04:27:00,
2013-05-24 23:42:00,55.6,45.0,30.31,East,88,2.0,7.0,68,0.00,,,0.00,weatherlink.com 1.10,2013-05-25 04:42:00,
2013-05-24 23:57:00,55.5,45.0,30.32,East,93,5.0,6.0,67,0.00,,,0.00,weatherlink.com 1.10,2013-05-25 04:57:00,